Wampum, Pennsylvania
Current Conditions -  °F | °C
As of 1:55 PM on Monday 20 Oct 2014 (Local Time) from KBTP Reporting Station
Broken Clouds Broken Clouds  
Wind Chill: 55°   Ceiling: 10000
Heat Index: 55°   Visibility: 10mi
Dew Point: 39°   Wind: 12mph
Humidity: 54%   Direction: 170°S
Pressure: 29.92"   Gusts: 17mph
Location:  40.89°N, 80.34°W
Report Text: KBTP 201755Z AUTO 17010G15KT 10SM BKN100 13/04 A2992 RMK AO1 10130 20060 57027
Loading
Personal Weather Stations






























Interactive Weather Map New forecast layout! Learn more

10-Day Weather Forecast

Advertisements
Track Severe Weather on mobile